createdAt,value
2019-05-25T00:00:32.328Z,0
2019-05-25T00:01:31.556Z,0
2019-05-25T00:02:31.533Z,0
2019-05-25T00:03:32.047Z,0
2019-05-25T00:04:31.597Z,0
2019-05-25T00:05:31.542Z,0
2019-05-25T00:06:31.537Z,0
2019-05-25T00:07:31.553Z,0
2019-05-25T00:08:35.205Z,0
2019-05-25T00:09:34.853Z,0
2019-05-25T00:10:31.771Z,0
2019-05-25T00:11:31.764Z,0
2019-05-25T00:12:31.766Z,0
2019-05-25T00:13:32.343Z,0
2019-05-25T00:14:31.753Z,0
2019-05-25T00:15:31.780Z,0
2019-05-25T00:16:32.094Z,0
2019-05-25T00:17:31.499Z,0
2019-05-25T00:18:31.764Z,0
2019-05-25T00:19:34.395Z,0
2019-05-25T00:20:33.427Z,0
2019-05-25T00:21:31.503Z,0
2019-05-25T00:22:31.744Z,0
2019-05-25T00:23:31.991Z,0
2019-05-25T00:24:31.821Z,0
2019-05-25T00:25:32.037Z,0
2019-05-25T00:26:31.873Z,0
2019-05-25T00:27:31.537Z,0
2019-05-25T00:28:31.491Z,0
2019-05-25T00:29:32.061Z,0
2019-05-25T00:30:33.661Z,0
2019-05-25T00:31:35.052Z,0
2019-05-25T00:32:31.483Z,0
2019-05-25T00:33:31.527Z,0
2019-05-25T00:34:31.497Z,0
2019-05-25T00:35:31.734Z,0
2019-05-25T00:36:31.788Z,0
2019-05-25T00:37:31.481Z,0
2019-05-25T00:38:31.738Z,0
2019-05-25T00:39:31.735Z,0
2019-05-25T00:40:34.748Z,0
2019-05-25T00:42:10.099Z,0
2019-05-25T00:42:31.973Z,0
2019-05-25T00:43:31.707Z,0
2019-05-25T00:44:31.953Z,0
2019-05-25T00:45:32.014Z,0
2019-05-25T00:46:31.460Z,0
2019-05-25T00:47:31.710Z,0
2019-05-25T00:48:31.456Z,0
2019-05-25T00:49:32.006Z,0
2019-05-25T00:50:31.781Z,0
2019-05-25T00:51:37.998Z,0
2019-05-25T00:52:34.748Z,0
2019-05-25T00:53:32.189Z,0
2019-05-25T00:54:37.247Z,0
2019-05-25T00:55:31.994Z,0
2019-05-25T00:56:32.183Z,0
2019-05-25T00:57:31.943Z,0
2019-05-25T00:58:31.438Z,0
2019-05-25T00:59:31.940Z,0
2019-05-25T01:00:32.043Z,0
2019-05-25T01:01:34.102Z,0
2019-05-25T01:02:34.973Z,0
2019-05-25T01:03:34.953Z,0
2019-05-25T01:04:31.699Z,0
2019-05-25T01:05:31.833Z,0
2019-05-25T01:06:31.924Z,0
2019-05-25T01:07:31.421Z,0
2019-05-25T01:08:31.687Z,0
2019-05-25T01:09:31.168Z,0
2019-05-25T01:10:31.831Z,0
2019-05-25T01:11:31.665Z,0
2019-05-25T01:12:32.771Z,0
2019-05-25T01:13:34.973Z,0
2019-05-25T01:14:31.922Z,0
2019-05-25T01:15:31.967Z,0
2019-05-25T01:16:31.447Z,0
2019-05-25T01:17:31.386Z,0
2019-05-25T01:18:31.919Z,0
2019-05-25T01:19:32.156Z,0
2019-05-25T01:20:32.190Z,0
2019-05-25T01:21:31.649Z,0
2019-05-25T01:22:31.433Z,0
2019-05-25T01:23:34.962Z,0
2019-05-25T01:24:47.454Z,0
2019-05-25T01:25:31.680Z,0
2019-05-25T01:26:31.403Z,0
2019-05-25T01:27:31.649Z,0
2019-05-25T01:28:31.932Z,0
2019-05-25T01:29:32.131Z,0
2019-05-25T01:30:31.473Z,0
2019-05-25T01:31:31.872Z,0
2019-05-25T01:32:31.877Z,0
2019-05-25T01:33:31.863Z,0
2019-05-25T01:34:34.965Z,0
2019-05-25T01:35:37.755Z,0
2019-05-25T01:36:31.852Z,0
2019-05-25T01:37:31.372Z,0
2019-05-25T01:38:31.379Z,0
2019-05-25T01:39:31.909Z,0
2019-05-25T01:40:32.256Z,0
2019-05-25T01:41:31.858Z,0
2019-05-25T01:42:31.840Z,0
2019-05-25T01:43:32.121Z,0
2019-05-25T01:44:31.724Z,0
2019-05-25T01:45:37.711Z,0
2019-05-25T01:46:34.910Z,0
2019-05-25T01:47:31.622Z,0
2019-05-25T01:48:31.839Z,0
2019-05-25T01:49:31.879Z,0
2019-05-25T01:50:32.126Z,0
2019-05-25T01:51:31.640Z,0
2019-05-25T01:52:32.082Z,0
2019-05-25T01:53:31.570Z,0
2019-05-25T01:54:31.832Z,0
2019-05-25T01:55:33.001Z,0
2019-05-25T01:56:34.473Z,0
2019-05-25T01:57:32.085Z,0
2019-05-25T01:58:31.823Z,0
2019-05-25T01:59:31.831Z,0
2019-05-25T02:00:31.836Z,0
2019-05-25T02:01:31.608Z,0
2019-05-25T02:02:32.058Z,0
2019-05-25T02:03:32.067Z,0
2019-05-25T02:04:31.878Z,0
2019-05-25T02:05:31.609Z,0
2019-05-25T02:06:35.673Z,0
2019-05-25T02:07:34.575Z,0
2019-05-25T02:08:31.531Z,0
2019-05-25T02:09:31.773Z,0
2019-05-25T02:10:31.829Z,0
2019-05-25T02:11:31.334Z,0
2019-05-25T02:12:31.787Z,0
2019-05-25T02:13:31.817Z,0
2019-05-25T02:14:31.783Z,0
2019-05-25T02:15:31.271Z,0
2019-05-25T02:16:31.823Z,0
2019-05-25T02:17:34.546Z,0
2019-05-25T02:18:34.548Z,0
2019-05-25T02:19:31.818Z,0
2019-05-25T02:20:31.541Z,0
2019-05-25T02:21:31.818Z,0
2019-05-25T02:22:31.765Z,0
2019-05-25T02:23:31.759Z,0
2019-05-25T02:24:31.762Z,0
2019-05-25T02:25:31.482Z,0
2019-05-25T02:26:32.066Z,0
2019-05-25T02:27:31.504Z,0
2019-05-25T02:28:34.277Z,0
2019-05-25T02:29:37.786Z,0
2019-05-25T02:30:31.996Z,0
2019-05-25T02:31:31.785Z,0
2019-05-25T02:32:31.514Z,0
2019-05-25T02:33:31.241Z,0
2019-05-25T02:34:31.704Z,0
2019-05-25T02:35:31.954Z,0
2019-05-25T02:36:31.745Z,0
2019-05-25T02:37:31.455Z,0
2019-05-25T02:38:34.984Z,0
2019-05-25T02:39:38.253Z,0
2019-05-25T02:40:31.962Z,0
2019-05-25T02:41:32.049Z,0
2019-05-25T02:42:31.945Z,0
2019-05-25T02:43:31.455Z,0
2019-05-25T02:44:31.461Z,0
2019-05-25T02:45:31.459Z,0
2019-05-25T02:46:31.937Z,0
2019-05-25T02:47:31.204Z,0
2019-05-25T02:48:31.974Z,0
2019-05-25T02:49:37.461Z,0
2019-05-25T02:50:34.472Z,0
2019-05-25T02:51:31.434Z,0
2019-05-25T02:52:31.730Z,0
2019-05-25T02:53:31.432Z,0
2019-05-25T02:54:31.772Z,0
2019-05-25T02:55:43.445Z,0
2019-05-25T02:56:31.936Z,0
2019-05-25T02:57:31.396Z,0
2019-05-25T02:58:31.630Z,0
2019-05-25T02:59:31.690Z,0
2019-05-25T03:00:34.696Z,0
2019-05-25T03:01:34.922Z,0
2019-05-25T03:02:31.400Z,0
2019-05-25T03:03:31.860Z,0
2019-05-25T03:04:31.872Z,0
2019-05-25T03:05:31.862Z,0
2019-05-25T03:06:31.860Z,0
2019-05-25T03:07:31.390Z,0
2019-05-25T03:08:31.631Z,0
2019-05-25T03:09:31.598Z,0
2019-05-25T03:10:31.761Z,0
2019-05-25T03:11:34.702Z,0
2019-05-25T03:12:31.097Z,0
2019-05-25T03:13:31.882Z,0
2019-05-25T03:14:31.600Z,0
2019-05-25T03:15:31.614Z,0
2019-05-25T03:16:31.838Z,0
2019-05-25T03:17:31.673Z,0
2019-05-25T03:18:31.841Z,0
2019-05-25T03:19:31.585Z,0
2019-05-25T03:20:31.831Z,0
2019-05-25T03:21:34.866Z,0
2019-05-25T03:22:33.156Z,0
2019-05-25T03:23:31.555Z,0
2019-05-25T03:24:31.318Z,0
2019-05-25T03:25:31.877Z,0
2019-05-25T03:26:31.310Z,0
2019-05-25T03:27:31.668Z,0
2019-05-25T03:28:31.795Z,0
2019-05-25T03:29:31.546Z,0
2019-05-25T03:30:31.556Z,0
2019-05-25T03:31:31.315Z,0
2019-05-25T03:32:34.335Z,0
2019-05-25T03:33:34.850Z,0
2019-05-25T03:34:31.555Z,0
2019-05-25T03:35:31.359Z,0
2019-05-25T03:36:31.941Z,0
2019-05-25T03:37:31.579Z,5
2019-05-25T03:38:31.782Z,5
2019-05-25T03:39:31.792Z,5
2019-05-25T03:40:31.282Z,5
2019-05-25T03:41:31.275Z,5
2019-05-25T03:42:31.318Z,5
2019-05-25T03:43:37.280Z,5
2019-05-25T03:44:34.570Z,5
2019-05-25T03:45:31.276Z,5
2019-05-25T03:46:31.791Z,5
2019-05-25T03:47:31.290Z,5
2019-05-25T03:48:31.509Z,5
2019-05-25T03:49:31.730Z,10
2019-05-25T03:50:31.788Z,10
2019-05-25T03:51:31.772Z,10
2019-05-25T03:52:31.054Z,10
2019-05-25T03:53:32.962Z,10
2019-05-25T03:54:34.263Z,10
2019-05-25T03:55:31.264Z,10
2019-05-25T03:56:31.224Z,15
2019-05-25T03:57:31.544Z,15
2019-05-25T03:58:31.497Z,15
2019-05-25T03:59:31.477Z,15
2019-05-25T04:00:31.725Z,15
2019-05-25T04:01:30.984Z,15
2019-05-25T04:02:31.556Z,20
2019-05-25T04:03:31.199Z,20
2019-05-25T04:04:34.496Z,20
2019-05-25T04:05:34.254Z,20
2019-05-25T04:06:31.450Z,20
2019-05-25T04:07:31.472Z,25
2019-05-25T04:08:31.447Z,25
2019-05-25T04:09:31.223Z,25
2019-05-25T04:10:31.448Z,30
2019-05-25T04:11:31.188Z,30
2019-05-25T04:12:31.512Z,30
2019-05-25T04:13:31.705Z,35
2019-05-25T04:14:31.475Z,35
2019-05-25T04:15:34.497Z,35
2019-05-25T04:16:33.277Z,40
2019-05-25T04:17:30.955Z,40
2019-05-25T04:18:31.691Z,40
2019-05-25T04:19:31.687Z,40
2019-05-25T04:20:31.434Z,40
2019-05-25T04:21:31.415Z,40
2019-05-25T04:22:31.411Z,40
2019-05-25T04:23:30.944Z,40
2019-05-25T04:24:30.956Z,40
2019-05-25T04:25:31.680Z,40
2019-05-25T04:26:35.355Z,40
2019-05-25T04:27:37.542Z,40
2019-05-25T04:28:31.404Z,40
2019-05-25T04:29:31.400Z,40
2019-05-25T04:30:31.524Z,40
2019-05-25T04:31:31.430Z,45
2019-05-25T04:32:31.431Z,45
2019-05-25T04:33:31.658Z,50
2019-05-25T04:34:31.168Z,50
2019-05-25T04:35:31.141Z,55
2019-05-25T04:36:34.417Z,55
2019-05-25T04:37:37.213Z,60
2019-05-25T04:38:31.146Z,60
2019-05-25T04:39:31.381Z,65
2019-05-25T04:40:32.744Z,70
2019-05-25T04:41:31.613Z,70
2019-05-25T04:42:31.662Z,75
2019-05-25T04:43:31.133Z,75
2019-05-25T04:44:31.408Z,75
2019-05-25T04:45:31.641Z,80
2019-05-25T04:46:31.656Z,85
2019-05-25T04:47:37.895Z,90
2019-05-25T04:48:34.647Z,90
2019-05-25T04:49:31.344Z,90
2019-05-25T04:50:31.140Z,90
2019-05-25T04:51:31.148Z,95
2019-05-25T04:52:31.346Z,95
2019-05-25T04:53:31.587Z,95
2019-05-25T04:54:30.866Z,90
2019-05-25T04:55:31.333Z,90
2019-05-25T04:56:47.512Z,90
2019-05-25T04:57:31.414Z,95
2019-05-25T04:58:34.149Z,95
2019-05-25T04:59:34.367Z,95
2019-05-25T05:00:31.652Z,100
2019-05-25T05:01:32.083Z,100
2019-05-25T05:02:31.356Z,105
2019-05-25T05:03:31.146Z,105
2019-05-25T05:04:31.366Z,110
2019-05-25T05:05:31.099Z,110
2019-05-25T05:06:31.607Z,115
2019-05-25T05:07:31.388Z,110
2019-05-25T05:08:35.577Z,115
2019-05-25T05:09:34.377Z,115
2019-05-25T05:10:31.337Z,120
2019-05-25T05:11:31.082Z,120
2019-05-25T05:12:31.431Z,120
2019-05-25T05:13:31.329Z,120
2019-05-25T05:14:31.164Z,120
2019-05-25T05:15:31.322Z,125
2019-05-25T05:16:31.323Z,130
2019-05-25T05:17:30.855Z,130
2019-05-25T05:18:31.406Z,140
2019-05-25T05:19:34.353Z,135
2019-05-25T05:20:34.096Z,130
2019-05-25T05:21:30.572Z,115
2019-05-25T05:22:31.568Z,115
2019-05-25T05:23:30.838Z,115
2019-05-25T05:24:31.092Z,115
2019-05-25T05:25:31.335Z,115
2019-05-25T05:26:31.311Z,115
2019-05-25T05:27:31.329Z,115
2019-05-25T05:28:31.120Z,115
2019-05-25T05:29:31.114Z,115
2019-05-25T05:30:34.626Z,120
2019-05-25T05:31:35.603Z,120
2019-05-25T05:32:39.815Z,120
2019-05-25T05:33:31.112Z,125
2019-05-25T05:34:31.646Z,125
2019-05-25T05:35:31.590Z,125
2019-05-25T05:36:30.876Z,130
2019-05-25T05:37:30.892Z,130
2019-05-25T05:38:31.304Z,130
2019-05-25T05:39:30.816Z,130
2019-05-25T05:40:31.321Z,130
2019-05-25T05:41:37.945Z,130
2019-05-25T05:42:33.856Z,130
2019-05-25T05:43:31.369Z,135
2019-05-25T05:44:31.341Z,140
2019-05-25T05:45:31.318Z,135
2019-05-25T05:46:31.062Z,135
2019-05-25T05:47:31.059Z,135
2019-05-25T05:48:31.364Z,140
2019-05-25T05:49:31.064Z,140
2019-05-25T05:50:31.057Z,145
2019-05-25T05:51:32.461Z,145
2019-05-25T05:52:34.157Z,145
2019-05-25T05:53:31.352Z,150
2019-05-25T05:54:31.301Z,175
2019-05-25T05:55:30.828Z,175
2019-05-25T05:56:31.077Z,160
2019-05-25T05:57:30.810Z,150
2019-05-25T05:58:30.861Z,150
2019-05-25T05:59:31.316Z,150
2019-05-25T06:00:31.118Z,165
2019-05-25T06:01:31.320Z,165
2019-05-25T06:02:33.888Z,145
2019-05-25T06:03:34.157Z,140
2019-05-25T06:04:31.535Z,145
2019-05-25T06:05:30.845Z,145
2019-05-25T06:06:31.282Z,145
2019-05-25T06:07:34.374Z,160
2019-05-25T06:08:30.865Z,175
2019-05-25T06:09:31.135Z,155
2019-05-25T06:10:31.075Z,170
2019-05-25T06:11:31.079Z,180
2019-05-25T06:12:30.821Z,185
2019-05-25T06:13:34.121Z,215
2019-05-25T06:14:37.621Z,250
2019-05-25T06:15:31.094Z,275
2019-05-25T06:16:31.077Z,285
2019-05-25T06:17:31.370Z,305
2019-05-25T06:18:30.844Z,320
2019-05-25T06:19:30.824Z,320
2019-05-25T06:20:31.064Z,325
2019-05-25T06:21:31.316Z,320
2019-05-25T06:22:31.554Z,325
2019-05-25T06:23:31.367Z,330
2019-05-25T06:24:32.891Z,340
2019-05-25T06:25:34.499Z,335
2019-05-25T06:26:31.070Z,330
2019-05-25T06:27:36.372Z,340
2019-05-25T06:28:31.627Z,335
2019-05-25T06:29:30.832Z,325
2019-05-25T06:30:31.546Z,320
2019-05-25T06:31:30.829Z,325
2019-05-25T06:32:31.337Z,325
2019-05-25T06:33:30.846Z,320
2019-05-25T06:34:33.883Z,325
2019-05-25T06:35:31.998Z,330
2019-05-25T06:36:31.131Z,340
2019-05-25T06:37:31.114Z,355
2019-05-25T06:38:31.122Z,355
2019-05-25T06:39:31.375Z,350
2019-05-25T06:40:31.610Z,365
2019-05-25T06:41:31.380Z,365
2019-05-25T06:42:31.129Z,390
2019-05-25T06:43:31.395Z,395
2019-05-25T06:44:31.378Z,395
2019-05-25T06:45:37.647Z,395
2019-05-25T06:46:33.962Z,400
2019-05-25T06:47:31.380Z,400
2019-05-25T06:48:31.163Z,400
2019-05-25T06:49:31.377Z,385
2019-05-25T06:50:31.666Z,395
2019-05-25T06:51:31.186Z,395
2019-05-25T06:52:31.439Z,400
2019-05-25T06:53:31.144Z,400
2019-05-25T06:54:30.922Z,400
2019-05-25T06:55:31.205Z,405
2019-05-25T06:56:34.206Z,410
2019-05-25T06:57:46.769Z,410
2019-05-25T06:58:30.793Z,410
2019-05-25T06:59:31.217Z,410
2019-05-25T07:00:31.186Z,410
2019-05-25T07:01:34.660Z,410
2019-05-25T07:02:32.075Z,410
2019-05-25T07:03:31.562Z,410
2019-05-25T07:04:31.530Z,410
2019-05-25T07:05:31.561Z,410
2019-05-25T07:06:31.020Z,415
2019-05-25T07:07:34.305Z,410
2019-05-25T07:08:34.789Z,410
2019-05-25T07:09:31.573Z,405
2019-05-25T07:10:31.515Z,405
2019-05-25T07:11:31.300Z,405
2019-05-25T07:12:31.269Z,405
2019-05-25T07:13:33.153Z,405
2019-05-25T07:14:31.788Z,370
2019-05-25T07:15:31.316Z,390
2019-05-25T07:16:31.554Z,395
2019-05-25T07:17:34.096Z,395
2019-05-25T07:18:40.156Z,400
2019-05-25T07:19:31.632Z,400
2019-05-25T07:20:31.319Z,400
2019-05-25T07:21:31.847Z,395
2019-05-25T07:22:31.594Z,395
2019-05-25T07:23:31.351Z,395
2019-05-25T07:24:31.119Z,390
2019-05-25T07:25:31.627Z,400
2019-05-25T07:26:31.608Z,395
2019-05-25T07:27:31.365Z,390
2019-05-25T07:28:37.887Z,380
2019-05-25T07:29:34.929Z,405
2019-05-25T07:30:31.405Z,400
2019-05-25T07:31:31.400Z,385
2019-05-25T07:32:31.701Z,400
2019-05-25T07:33:31.162Z,415
2019-05-25T07:34:31.959Z,405
2019-05-25T07:35:31.214Z,405
2019-05-25T07:36:31.192Z,400
2019-05-25T07:37:31.211Z,405
2019-05-25T07:38:31.462Z,405
2019-05-25T07:39:34.801Z,400
2019-05-25T07:40:34.257Z,400
2019-05-25T07:41:31.737Z,400
2019-05-25T07:42:31.750Z,405
2019-05-25T07:43:32.078Z,410
2019-05-25T07:44:31.302Z,405
2019-05-25T07:45:31.770Z,405
2019-05-25T07:46:31.509Z,410
2019-05-25T07:47:31.520Z,405
2019-05-25T07:48:32.046Z,410
2019-05-25T07:49:31.953Z,405
2019-05-25T07:50:34.903Z,405
2019-05-25T07:51:31.052Z,400
2019-05-25T07:52:31.581Z,400
2019-05-25T07:53:31.568Z,410
2019-05-25T07:54:32.070Z,415
2019-05-25T07:55:31.409Z,415
2019-05-25T07:56:31.833Z,415
2019-05-25T07:57:35.530Z,415
2019-05-25T07:58:31.640Z,415
2019-05-25T07:59:31.884Z,420
2019-05-25T08:00:34.967Z,365
2019-05-25T08:01:38.137Z,360
2019-05-25T08:02:31.637Z,350
2019-05-25T08:03:31.905Z,325
2019-05-25T08:04:31.139Z,305
2019-05-25T08:05:31.905Z,295
2019-05-25T08:06:31.947Z,315
2019-05-25T08:07:31.683Z,310
2019-05-25T08:08:31.677Z,415
2019-05-25T08:09:31.678Z,425
2019-05-25T08:10:31.933Z,425
2019-05-25T08:11:32.871Z,420
2019-05-25T08:12:34.766Z,425
2019-05-25T08:13:32.269Z,410
2019-05-25T08:14:31.995Z,400
2019-05-25T08:15:31.992Z,400
2019-05-25T08:16:31.507Z,410
2019-05-25T08:17:32.309Z,415
2019-05-25T08:18:31.745Z,415
2019-05-25T08:19:31.225Z,410
2019-05-25T08:20:31.493Z,410
2019-05-25T08:21:31.765Z,405
2019-05-25T08:22:34.881Z,400
2019-05-25T08:23:37.173Z,400
2019-05-25T08:24:31.800Z,405
2019-05-25T08:25:31.533Z,400
2019-05-25T08:26:32.039Z,395
2019-05-25T08:27:31.798Z,395
2019-05-25T08:28:42.645Z,405
2019-05-25T08:29:32.061Z,395
2019-05-25T08:30:31.567Z,390
2019-05-25T08:31:32.061Z,390
2019-05-25T08:32:32.222Z,385
2019-05-25T08:33:35.114Z,385
2019-05-25T08:34:31.686Z,380
2019-05-25T08:35:31.894Z,375
2019-05-25T08:36:34.544Z,385
2019-05-25T08:37:31.856Z,375
2019-05-25T08:38:32.133Z,375
2019-05-25T08:39:31.862Z,375
2019-05-25T08:40:32.373Z,380
2019-05-25T08:41:32.129Z,380
2019-05-25T08:42:31.925Z,375
2019-05-25T08:43:34.928Z,375
2019-05-25T08:44:33.646Z,375
2019-05-25T08:45:38.536Z,375
2019-05-25T08:46:32.168Z,370
2019-05-25T08:47:32.194Z,375
2019-05-25T08:48:32.430Z,375
2019-05-25T08:49:32.532Z,375
2019-05-25T08:50:47.045Z,370
2019-05-25T08:51:32.211Z,375
2019-05-25T08:52:32.009Z,380
2019-05-25T08:53:53.264Z,370
2019-05-25T08:54:33.666Z,365
2019-05-25T08:55:35.327Z,365
2019-05-25T08:56:32.243Z,365
2019-05-25T08:57:31.992Z,365
2019-05-25T08:58:45.740Z,355
2019-05-25T08:59:32.498Z,350
2019-05-25T09:00:32.265Z,345
2019-05-25T09:01:32.301Z,345
2019-05-25T09:02:32.028Z,345
2019-05-25T09:03:32.311Z,350
2019-05-25T09:04:34.859Z,360
2019-05-25T09:05:35.339Z,360
2019-05-25T09:06:35.603Z,360
2019-05-25T09:07:32.066Z,360
2019-05-25T09:08:32.334Z,355
2019-05-25T09:09:32.393Z,350
2019-05-25T09:10:31.856Z,350
2019-05-25T09:11:32.085Z,345
2019-05-25T09:12:32.117Z,340
2019-05-25T09:13:31.894Z,340
2019-05-25T09:14:31.977Z,340
2019-05-25T09:15:33.288Z,340
2019-05-25T09:16:35.450Z,340
2019-05-25T09:17:32.618Z,340
2019-05-25T09:18:32.138Z,340
2019-05-25T09:19:32.125Z,335
2019-05-25T09:20:32.387Z,335
2019-05-25T09:21:32.421Z,335
2019-05-25T09:22:31.915Z,325
2019-05-25T09:23:32.415Z,330
2019-05-25T09:24:32.434Z,320
2019-05-25T09:25:32.448Z,335
2019-05-25T09:26:35.479Z,330
2019-05-25T09:27:35.484Z,335
2019-05-25T09:28:32.418Z,340
2019-05-25T09:29:32.484Z,340
2019-05-25T09:30:32.436Z,340
2019-05-25T09:31:32.455Z,340
2019-05-25T09:32:32.758Z,340
2019-05-25T09:33:32.691Z,340
2019-05-25T09:34:32.028Z,340
2019-05-25T09:35:32.598Z,335
2019-05-25T09:36:32.216Z,330
2019-05-25T09:37:35.488Z,335
2019-05-25T09:38:35.751Z,340
2019-05-25T09:39:32.446Z,345
2019-05-25T09:40:32.218Z,345
2019-05-25T09:41:32.232Z,350
2019-05-25T09:42:32.236Z,340
2019-05-25T09:43:36.228Z,345
2019-05-25T09:44:32.516Z,345
2019-05-25T09:45:31.978Z,355
2019-05-25T09:46:32.245Z,360
2019-05-25T09:47:32.488Z,375
2019-05-25T09:48:42.855Z,380
2019-05-25T09:49:35.563Z,385
2019-05-25T09:50:32.531Z,395
2019-05-25T09:51:31.993Z,400
2019-05-25T09:52:32.539Z,345
2019-05-25T09:53:32.513Z,385
2019-05-25T09:54:32.255Z,400
2019-05-25T09:55:32.529Z,345
2019-05-25T09:56:32.520Z,350
2019-05-25T09:57:32.077Z,365
2019-05-25T09:58:34.189Z,345
2019-05-25T09:59:35.909Z,340
2019-05-25T10:00:32.541Z,340
2019-05-25T10:01:32.787Z,330
2019-05-25T10:02:32.560Z,330
2019-05-25T10:03:32.308Z,325
2019-05-25T10:04:32.836Z,320
2019-05-25T10:05:32.337Z,310
2019-05-25T10:06:32.564Z,305
2019-05-25T10:07:32.339Z,300
2019-05-25T10:08:32.562Z,295
2019-05-25T10:09:39.852Z,290
2019-05-25T10:10:34.868Z,285
2019-05-25T10:11:32.663Z,280
2019-05-25T10:12:32.662Z,275
2019-05-25T10:13:32.349Z,280
2019-05-25T10:14:32.881Z,270
2019-05-25T10:15:35.406Z,265
2019-05-25T10:16:32.357Z,265
2019-05-25T10:17:32.112Z,265
2019-05-25T10:18:32.129Z,255
2019-05-25T10:19:32.657Z,245
2019-05-25T10:20:35.452Z,240
2019-05-25T10:21:34.206Z,235
2019-05-25T10:22:32.846Z,230
2019-05-25T10:23:32.607Z,225
2019-05-25T10:24:32.682Z,215
2019-05-25T10:25:32.652Z,215
2019-05-25T10:26:32.873Z,210
2019-05-25T10:27:34.252Z,200
2019-05-25T10:28:32.403Z,195
2019-05-25T10:29:46.385Z,190
2019-05-25T10:30:32.655Z,185
2019-05-25T10:31:33.829Z,180
2019-05-25T10:32:38.668Z,175
2019-05-25T10:33:32.795Z,175
2019-05-25T10:34:32.413Z,170
2019-05-25T10:35:32.474Z,165
2019-05-25T10:36:32.910Z,160
2019-05-25T10:37:32.405Z,150
2019-05-25T10:38:32.908Z,145
2019-05-25T10:39:32.669Z,140
2019-05-25T10:40:32.662Z,135
2019-05-25T10:41:33.734Z,135
2019-05-25T10:42:35.765Z,135
2019-05-25T10:43:32.480Z,130
2019-05-25T10:44:32.440Z,130
2019-05-25T10:45:33.022Z,125
2019-05-25T10:46:33.070Z,125
2019-05-25T10:47:32.751Z,120
2019-05-25T10:48:33.067Z,120
2019-05-25T10:49:32.674Z,115
2019-05-25T10:50:33.008Z,115
2019-05-25T10:51:32.699Z,110
2019-05-25T10:52:35.778Z,110
2019-05-25T10:53:35.231Z,105
2019-05-25T10:54:32.230Z,105
2019-05-25T10:55:32.756Z,100
2019-05-25T10:56:32.731Z,100
2019-05-25T10:57:32.496Z,100
2019-05-25T10:58:32.703Z,105
2019-05-25T10:59:32.956Z,105
2019-05-25T11:00:32.539Z,105
2019-05-25T11:01:32.736Z,105
2019-05-25T11:02:33.015Z,105
2019-05-25T11:03:35.270Z,105
2019-05-25T11:04:35.792Z,110
2019-05-25T11:05:32.766Z,115
2019-05-25T11:06:34.782Z,120
2019-05-25T11:07:32.502Z,125
2019-05-25T11:08:33.010Z,130
2019-05-25T11:09:32.267Z,135
2019-05-25T11:10:33.023Z,140
2019-05-25T11:11:32.237Z,145
2019-05-25T11:12:35.329Z,150
2019-05-25T11:13:33.184Z,155
2019-05-25T11:14:36.099Z,160
2019-05-25T11:15:39.103Z,170
2019-05-25T11:16:32.849Z,180
2019-05-25T11:17:32.285Z,190
2019-05-25T11:18:32.552Z,200
2019-05-25T11:19:33.520Z,210
2019-05-25T11:20:32.584Z,225
2019-05-25T11:21:32.759Z,235
2019-05-25T11:22:32.753Z,245
2019-05-25T11:23:32.650Z,255
2019-05-25T11:24:36.042Z,265
2019-05-25T11:25:39.078Z,280
2019-05-25T11:26:32.512Z,285
2019-05-25T11:27:32.788Z,300
2019-05-25T11:28:32.515Z,305
2019-05-25T11:29:32.540Z,315
2019-05-25T11:30:32.814Z,325
2019-05-25T11:31:33.507Z,345
2019-05-25T11:32:32.255Z,350
2019-05-25T11:33:32.266Z,360
2019-05-25T11:34:33.028Z,365
2019-05-25T11:35:36.819Z,375
2019-05-25T11:36:35.544Z,380
2019-05-25T11:37:32.530Z,385
2019-05-25T11:38:32.553Z,390
2019-05-25T11:39:32.279Z,390
2019-05-25T11:40:33.057Z,395
2019-05-25T11:41:32.295Z,395
2019-05-25T11:42:32.060Z,395
2019-05-25T11:43:32.559Z,400
2019-05-25T11:44:32.787Z,390
2019-05-25T11:45:32.354Z,390
2019-05-25T11:46:35.836Z,380
2019-05-25T11:47:35.605Z,375
2019-05-25T11:48:32.378Z,370
2019-05-25T11:49:32.794Z,375
2019-05-25T11:50:32.803Z,365
2019-05-25T11:51:32.079Z,360
2019-05-25T11:52:32.849Z,365
2019-05-25T11:53:32.319Z,350
2019-05-25T11:54:32.834Z,345
2019-05-25T11:55:32.077Z,370
2019-05-25T11:56:33.517Z,415
2019-05-25T11:57:36.105Z,390
2019-05-25T11:58:46.550Z,400
2019-05-25T11:59:32.830Z,345
2019-05-25T12:00:35.204Z,330
2019-05-25T12:01:32.597Z,325
2019-05-25T12:02:32.596Z,355
2019-05-25T12:03:32.355Z,360
2019-05-25T12:04:32.604Z,360
2019-05-25T12:05:32.872Z,360
2019-05-25T12:06:32.623Z,365
2019-05-25T12:07:35.672Z,370
2019-05-25T12:08:39.192Z,375
2019-05-25T12:09:32.828Z,375
2019-05-25T12:10:32.406Z,370
2019-05-25T12:11:33.119Z,360
2019-05-25T12:12:32.410Z,355
2019-05-25T12:13:34.673Z,330
2019-05-25T12:14:32.911Z,315
2019-05-25T12:15:32.954Z,310
2019-05-25T12:16:33.231Z,300
2019-05-25T12:17:32.944Z,290
2019-05-25T12:18:34.768Z,285
2019-05-25T12:19:36.209Z,280
2019-05-25T12:20:32.975Z,280
2019-05-25T12:21:32.439Z,275
2019-05-25T12:22:32.941Z,275
2019-05-25T12:23:32.946Z,275
2019-05-25T12:24:33.041Z,275
2019-05-25T12:25:32.458Z,275
2019-05-25T12:26:32.937Z,275
2019-05-25T12:27:32.999Z,275
2019-05-25T12:28:32.719Z,270
2019-05-25T12:29:36.009Z,270
2019-05-25T12:30:48.788Z,230
2019-05-25T12:31:32.726Z,225
2019-05-25T12:32:32.997Z,225
2019-05-25T12:33:33.043Z,215
2019-05-25T12:34:32.485Z,230
2019-05-25T12:35:32.724Z,215
2019-05-25T12:36:32.849Z,210
2019-05-25T12:37:32.782Z,230
2019-05-25T12:38:33.245Z,235
2019-05-25T12:39:36.331Z,240
2019-05-25T12:40:36.056Z,240
2019-05-25T12:41:33.076Z,245
2019-05-25T12:42:32.839Z,245
2019-05-25T12:43:33.036Z,245
2019-05-25T12:44:36.995Z,250
2019-05-25T12:45:33.031Z,250
2019-05-25T12:46:33.117Z,240
2019-05-25T12:47:32.764Z,245
2019-05-25T12:48:33.276Z,235
2019-05-25T12:49:51.552Z,240
2019-05-25T12:50:35.544Z,235
2019-05-25T12:51:36.076Z,220
2019-05-25T12:52:32.787Z,235
2019-05-25T12:53:32.577Z,235
2019-05-25T12:54:32.790Z,235
2019-05-25T12:55:32.545Z,250
2019-05-25T12:56:33.307Z,245
2019-05-25T12:57:33.430Z,245
2019-05-25T12:58:32.917Z,245
2019-05-25T12:59:32.567Z,245
2019-05-25T13:00:33.052Z,250
2019-05-25T13:01:35.893Z,250
2019-05-25T13:02:39.369Z,245
2019-05-25T13:03:35.050Z,245
2019-05-25T13:04:33.118Z,250
2019-05-25T13:05:43.584Z,250
2019-05-25T13:06:32.877Z,255
2019-05-25T13:07:33.112Z,255
2019-05-25T13:08:33.123Z,240
2019-05-25T13:09:33.094Z,220
2019-05-25T13:10:32.375Z,225
2019-05-25T13:11:32.882Z,225
2019-05-25T13:12:39.241Z,230
2019-05-25T13:13:36.127Z,230
2019-05-25T13:14:33.112Z,230
2019-05-25T13:15:33.471Z,225
2019-05-25T13:16:33.522Z,230
2019-05-25T13:17:32.630Z,230
2019-05-25T13:18:32.870Z,230
2019-05-25T13:19:33.127Z,225
2019-05-25T13:20:33.125Z,225
2019-05-25T13:21:32.890Z,225
2019-05-25T13:22:34.555Z,225
2019-05-25T13:23:35.671Z,225
2019-05-25T13:24:32.953Z,225
2019-05-25T13:25:32.896Z,220
2019-05-25T13:26:33.402Z,220
2019-05-25T13:27:32.446Z,225
2019-05-25T13:28:33.176Z,220
2019-05-25T13:29:33.144Z,225
2019-05-25T13:30:33.183Z,235
2019-05-25T13:31:32.446Z,230
2019-05-25T13:32:33.209Z,235
2019-05-25T13:33:36.232Z,255
2019-05-25T13:34:36.190Z,245
2019-05-25T13:35:32.973Z,245
2019-05-25T13:36:32.467Z,225
2019-05-25T13:37:33.275Z,220
2019-05-25T13:38:32.710Z,215
2019-05-25T13:39:32.697Z,215
2019-05-25T13:40:32.953Z,215
2019-05-25T13:41:33.450Z,215
2019-05-25T13:42:32.954Z,220
2019-05-25T13:43:32.961Z,220
2019-05-25T13:44:36.252Z,220
2019-05-25T13:45:35.821Z,215
2019-05-25T13:46:32.768Z,215
2019-05-25T13:47:32.961Z,210
2019-05-25T13:48:33.072Z,205
2019-05-25T13:49:33.469Z,205
2019-05-25T13:50:32.972Z,200
2019-05-25T13:51:32.477Z,200
2019-05-25T13:52:32.756Z,195
2019-05-25T13:53:35.531Z,190
2019-05-25T13:54:33.233Z,185
2019-05-25T13:55:36.018Z,180
2019-05-25T13:56:36.274Z,175
2019-05-25T13:57:33.503Z,170
2019-05-25T13:58:32.997Z,170
2019-05-25T13:59:33.023Z,170
2019-05-25T14:00:33.016Z,170
2019-05-25T14:01:37.979Z,170
2019-05-25T14:02:33.020Z,170
2019-05-25T14:03:33.277Z,170
2019-05-25T14:04:32.787Z,175